Maloy, Iowa
Current Conditions -  °F | °C
As of 2:15 PM on Sunday 21 Dec 2014 (Local Time) from KCSQ Reporting Station
Overcast Overcast  
Wind Chill: 30°   Ceiling: 900
Heat Index: 39°   Visibility: 9mi
Dew Point: 39°   Wind: 17mph
Humidity: 100%   Direction: 180°S
Pressure: 29.81"   Gusts: NA
Location:  40.6485°N, 94.5286°W
Report Text: KCSQ 212015Z AUTO 18015KT 9SM OVC009 04/04 A2981 RMK AO2
Loading
Personal Weather Stations






























Interactive Weather Map New forecast layout! Learn more

10-Day Weather Forecast

Advertisements
Track Severe Weather on mobile